Time;durP1;ratioP1;P1;durP2;ratioP2;P2;SDS_P1;SDS_P2;PMS_P1;PMS_P2;Temp;Humidity;BMP_temperature;BMP_pressure;BME280_temperature;BME280_humidity;BME280_pressure;Samples;Min_cycle;Max_cycle;Signal;HPM_P1;HPM_P2
2020/12/18 00:00:52;;;;;;;0.50;0.50;;;5.90;99.90;;;;;;5030166;28;20205;-86
2020/12/18 00:03:19;;;;;;;0.60;0.60;;;5.80;99.90;;;;;;5030461;28;20229;-86
2020/12/18 00:05:48;;;;;;;0.50;0.50;;;5.80;99.90;;;;;;5030170;28;20212;-86
2020/12/18 00:08:14;;;;;;;0.50;0.50;;;5.80;99.90;;;;;;5031813;28;20231;-85
2020/12/18 00:10:41;;;;;;;0.50;0.50;;;5.80;99.90;;;;;;5033849;28;20205;-86
2020/12/18 00:13:07;;;;;;;0.50;0.50;;;5.80;99.90;;;;;;5034004;28;20197;-86
2020/12/18 00:15:34;;;;;;;0.60;0.60;;;5.90;99.90;;;;;;5033971;28;20395;-86
2020/12/18 00:18:00;;;;;;;0.50;0.50;;;5.90;99.90;;;;;;5033539;28;20212;-86
2020/12/18 00:20:27;;;;;;;0.50;0.50;;;5.90;99.90;;;;;;5033714;28;20627;-86
2020/12/18 00:22:53;;;;;;;0.50;0.50;;;5.90;99.90;;;;;;5033796;28;20209;-86
2020/12/18 00:25:19;;;;;;;0.50;0.50;;;5.90;99.90;;;;;;5033921;28;20439;-86
2020/12/18 00:27:45;;;;;;;0.50;0.50;;;5.90;99.90;;;;;;5033465;28;20201;-85
2020/12/18 00:30:12;;;;;;;0.50;0.50;;;5.90;99.90;;;;;;5033587;28;20215;-85
2020/12/18 00:32:39;;;;;;;0.50;0.50;;;6.00;99.90;;;;;;5033651;28;20204;-86
2020/12/18 00:35:07;;;;;;;0.50;0.50;;;6.10;99.90;;;;;;5033556;28;20208;-86
2020/12/18 00:37:34;;;;;;;0.50;0.50;;;6.00;99.90;;;;;;5033368;28;20585;-85
2020/12/18 00:40:01;;;;;;;0.50;0.50;;;6.00;99.90;;;;;;5033291;28;20304;-85
2020/12/18 00:42:28;;;;;;;0.50;0.50;;;6.10;99.90;;;;;;5033412;28;20208;-85
2020/12/18 00:44:54;;;;;;;0.50;0.50;;;6.10;99.90;;;;;;5033190;28;20237;-86
2020/12/18 00:47:21;;;;;;;0.50;0.50;;;5.90;99.90;;;;;;5033213;28;20200;-86
2020/12/18 00:49:47;;;;;;;0.50;0.50;;;6.20;99.90;;;;;;5032991;28;20232;-86
2020/12/18 00:52:13;;;;;;;0.50;0.50;;;6.20;99.90;;;;;;5033276;28;20579;-86
2020/12/18 00:54:40;;;;;;;0.50;0.50;;;6.10;99.90;;;;;;5033327;28;20201;-86
2020/12/18 00:57:08;;;;;;;0.50;0.50;;;6.20;99.90;;;;;;5033133;28;20205;-86
2020/12/18 00:59:34;;;;;;;0.50;0.50;;;6.00;99.90;;;;;;5033087;28;20281;-86
2020/12/18 01:02:01;;;;;;;0.50;0.50;;;6.10;99.90;;;;;;5032971;28;20213;-86
2020/12/18 01:04:27;;;;;;;0.50;0.50;;;6.20;99.90;;;;;;5033126;28;20236;-86
2020/12/18 01:06:57;;;;;;;0.50;0.50;;;6.10;99.90;;;;;;5032788;28;20209;-86
2020/12/18 01:09:24;;;;;;;0.50;0.50;;;6.20;99.90;;;;;;5032902;28;20262;-86
2020/12/18 01:11:52;;;;;;;0.50;0.50;;;6.20;99.90;;;;;;5032983;28;20711;-86
2020/12/18 01:14:18;;;;;;;0.50;0.50;;;6.20;99.90;;;;;;5032821;28;20664;-86
2020/12/18 01:16:50;;;;;;;0.50;0.50;;;6.20;99.90;;;;;;5032774;28;20262;-86
2020/12/18 01:19:16;;;;;;;0.50;0.50;;;6.20;99.90;;;;;;5032546;28;20228;-86
2020/12/18 01:21:46;;;;;;;0.50;0.50;;;6.30;99.90;;;;;;5032630;28;20227;-86
2020/12/18 01:24:12;;;;;;;0.50;0.50;;;6.40;99.90;;;;;;5032680;28;20221;-86
2020/12/18 01:26:38;;;;;;;0.50;0.50;;;;;;;;;;5033049;28;20239;-86
2020/12/18 01:29:06;;;;;;;0.50;0.50;;;6.40;99.90;;;;;;5032546;28;20209;-86
2020/12/18 01:31:34;;;;;;;0.50;0.50;;;6.40;99.90;;;;;;5032346;28;20197;-86
2020/12/18 01:34:02;;;;;;;0.50;0.50;;;6.30;99.90;;;;;;5032543;28;20656;-86
2020/12/18 01:36:28;;;;;;;0.60;0.60;;;6.30;99.90;;;;;;5032647;28;20668;-86
2020/12/18 01:38:54;;;;;;;0.50;0.50;;;6.20;99.90;;;;;;5032342;28;20205;-86
2020/12/18 01:41:21;;;;;;;0.50;0.50;;;6.20;99.90;;;;;;5032489;28;20216;-86
2020/12/18 01:43:47;;;;;;;0.50;0.50;;;6.20;99.90;;;;;;5032356;28;20225;-86
2020/12/18 01:46:16;;;;;;;0.60;0.60;;;6.20;99.90;;;;;;5032396;28;20683;-86
2020/12/18 01:48:47;;;;;;;0.50;0.50;;;6.20;99.90;;;;;;5032112;28;20205;-86
2020/12/18 01:51:15;;;;;;;0.50;0.50;;;6.10;99.90;;;;;;5032502;28;20694;-86
2020/12/18 01:53:42;;;;;;;0.50;0.50;;;;;;;;;;5032294;28;20205;-86
2020/12/18 01:56:08;;;;;;;0.50;0.50;;;;;;;;;;5031653;28;20205;-86
2020/12/18 01:58:37;;;;;;;0.50;0.50;;;6.00;99.90;;;;;;5032313;28;20204;-86
2020/12/18 02:01:05;;;;;;;0.50;0.50;;;6.00;99.90;;;;;;5031686;28;20205;-86
2020/12/18 02:03:32;;;;;;;0.50;0.50;;;6.10;99.90;;;;;;5031510;28;20766;-85
2020/12/18 02:06:02;;;;;;;0.52;0.52;;;6.10;99.90;;;;;;5031765;28;20619;-86
2020/12/18 02:08:29;;;;;;;0.50;0.50;;;6.00;99.90;;;;;;5031901;28;20205;-86
2020/12/18 02:10:56;;;;;;;0.50;0.50;;;6.30;99.90;;;;;;5031441;28;20243;-85
2020/12/18 02:13:23;;;;;;;0.50;0.50;;;6.10;99.90;;;;;;5031463;28;20284;-86
2020/12/18 02:15:51;;;;;;;0.50;0.50;;;6.10;99.90;;;;;;5031931;28;20201;-85
2020/12/18 02:18:18;;;;;;;0.50;0.50;;;6.00;99.90;;;;;;5031850;28;20211;-85
2020/12/18 02:20:45;;;;;;;0.50;0.50;;;6.30;99.90;;;;;;5031430;28;20216;-85
2020/12/18 02:23:12;;;;;;;0.50;0.50;;;6.00;99.90;;;;;;5031607;28;20243;-86
2020/12/18 02:25:40;;;;;;;0.50;0.50;;;6.00;99.90;;;;;;5031462;28;20231;-85
2020/12/18 02:28:08;;;;;;;0.50;0.50;;;6.20;99.90;;;;;;5031174;28;20212;-85
2020/12/18 02:30:34;;;;;;;0.50;0.50;;;;;;;;;;5030421;28;20676;-85
2020/12/18 02:33:04;;;;;;;0.57;0.57;;;6.00;99.90;;;;;;5031235;28;20208;-86
2020/12/18 02:35:31;;;;;;;0.50;0.50;;;;;;;;;;5031313;28;20832;-85
2020/12/18 02:37:57;;;;;;;0.50;0.50;;;5.90;99.90;;;;;;5030900;28;20212;-85
2020/12/18 02:40:24;;;;;;;0.50;0.50;;;;;;;;;;5031148;28;20576;-85
2020/12/18 02:42:50;;;;;;;0.50;0.50;;;;;;;;;;5031231;28;20209;-87
2020/12/18 02:45:17;;;;;;;0.52;0.52;;;5.70;99.90;;;;;;5030767;28;20220;-85
2020/12/18 02:47:44;;;;;;;0.50;0.50;;;;;;;;;;5031048;28;20259;-86
2020/12/18 02:50:10;;;;;;;0.47;0.47;;;;;;;;;;5031061;28;20232;-87
2020/12/18 02:52:38;;;;;;;0.50;0.50;;;5.70;99.90;;;;;;5031207;28;20220;-87
2020/12/18 02:55:05;;;;;;;0.50;0.50;;;;;;;;;;5030743;28;20205;-86
2020/12/18 02:57:32;;;;;;;0.50;0.50;;;;;;;;;;5031083;28;20204;-86
2020/12/18 02:59:58;;;;;;;0.60;0.60;;;;;;;;;;5030904;28;20208;-87
2020/12/18 03:02:25;;;;;;;0.50;0.50;;;5.80;99.90;;;;;;5031195;28;20402;-86
2020/12/18 03:04:52;;;;;;;0.50;0.50;;;;;;;;;;5030563;28;20229;-86
2020/12/18 03:07:18;;;;;;;0.50;0.50;;;;;;;;;;5031082;28;20200;-86
2020/12/18 03:09:44;;;;;;;0.50;0.50;;;;;;;;;;5031059;28;20735;-86
2020/12/18 03:12:11;;;;;;;0.50;0.50;;;;;;;;;;5031070;28;20614;-86
2020/12/18 03:14:37;;;;;;;0.50;0.50;;;;;;;;;;5030493;28;20211;-86
2020/12/18 03:17:04;;;;;;;0.50;0.50;;;;;;;;;;5030817;28;20267;-85
2020/12/18 03:19:32;;;;;;;0.50;0.50;;;6.00;99.90;;;;;;5030713;28;20215;-86
2020/12/18 03:21:59;;;;;;;0.50;0.50;;;;;;;;;;5030726;28;20679;-86
2020/12/18 03:24:25;;;;;;;0.50;0.50;;;;;;;;;;5030192;28;20228;-85
2020/12/18 03:26:51;;;;;;;0.50;0.50;;;;;;;;;;5030460;28;20244;-86
2020/12/18 03:29:18;;;;;;;0.50;0.50;;;;;;;;;;5030532;28;20680;-86
2020/12/18 03:31:44;;;;;;;0.50;0.50;;;;;;;;;;5030436;28;20327;-86
2020/12/18 03:34:11;;;;;;;0.50;0.50;;;;;;;;;;5030368;28;20215;-86
2020/12/18 03:36:40;;;;;;;0.50;0.50;;;6.00;99.90;;;;;;5030297;28;20211;-86
2020/12/18 03:39:07;;;;;;;0.50;0.50;;;;;;;;;;5030437;28;20201;-85
2020/12/18 03:41:33;;;;;;;0.50;0.50;;;;;;;;;;5031056;28;20209;-85
2020/12/18 03:44:04;;;;;;;0.50;0.50;;;;;;;;;;5034198;28;20236;-85
2020/12/18 03:46:30;;;;;;;0.50;0.50;;;;;;;;;;5034399;28;20205;-86
2020/12/18 03:48:57;;;;;;;0.50;0.50;;;;;;;;;;5033960;28;20232;-85
2020/12/18 03:51:23;;;;;;;0.50;0.50;;;;;;;;;;5034341;28;20208;-86
2020/12/18 03:53:50;;;;;;;0.50;0.50;;;6.20;99.90;;;;;;5034335;28;20204;-85
2020/12/18 03:56:17;;;;;;;0.50;0.50;;;;;;;;;;5034340;28;20216;-86
2020/12/18 03:58:43;;;;;;;0.50;0.50;;;;;;;;;;5034070;28;20613;-85
2020/12/18 04:01:10;;;;;;;0.60;0.60;;;;;;;;;;5034266;28;20212;-86
2020/12/18 04:03:36;;;;;;;0.50;0.50;;;;;;;;;;5034057;28;20229;-86
2020/12/18 04:06:03;;;;;;;0.55;0.55;;;;;;;;;;5034118;28;20204;-86
2020/12/18 04:08:29;;;;;;;0.50;0.50;;;;;;;;;;5033752;28;20295;-85
2020/12/18 04:10:56;;;;;;;0.50;0.50;;;6.30;99.90;;;;;;5033842;28;20216;-86
2020/12/18 04:13:23;;;;;;;0.50;0.50;;;;;;;;;;5033951;28;20209;-86
2020/12/18 04:15:49;;;;;;;0.50;0.50;;;;;;;;;;5033842;28;20212;-86
2020/12/18 04:18:16;;;;;;;0.50;0.50;;;;;;;;;;5033829;28;20267;-85
2020/12/18 04:20:42;;;;;;;0.50;0.50;;;;;;;;;;5033695;28;20552;-85
2020/12/18 04:23:12;;;;;;;0.50;0.50;;;6.40;99.90;;;;;;5033891;28;20275;-85
2020/12/18 04:25:38;;;;;;;0.50;0.50;;;;;;;;;;5033717;28;20212;-86
2020/12/18 04:28:12;;;;;;;0.50;0.50;;;6.50;99.90;;;;;;5033736;28;20205;-85
2020/12/18 04:30:39;;;;;;;0.50;0.50;;;;;;;;;;5033766;28;20212;-85
2020/12/18 04:33:05;;;;;;;0.50;0.50;;;;;;;;;;5033476;28;20205;-85
2020/12/18 04:35:32;;;;;;;0.50;0.50;;;;;;;;;;5033376;28;20201;-85
2020/12/18 04:37:58;;;;;;;0.50;0.50;;;;;;;;;;5033518;28;20209;-86
2020/12/18 04:40:26;;;;;;;0.50;0.50;;;;;;;;;;5033503;28;20209;-86
2020/12/18 04:42:54;;;;;;;0.50;0.50;;;;;;;;;;5032950;28;20209;-85
2020/12/18 04:45:25;;;;;;;0.50;0.50;;;6.70;99.90;;;;;;5033582;28;20229;-85
2020/12/18 04:47:54;;;;;;;0.50;0.50;;;6.10;99.90;;;;;;5033342;28;20427;-84
2020/12/18 04:50:21;;;;;;;0.50;0.50;;;;;;;;;;5032929;28;20240;-85
2020/12/18 04:52:48;;;;;;;0.50;0.50;;;;;;;;;;5032901;28;20267;-85
2020/12/18 04:55:17;;;;;;;0.50;0.50;;;6.40;99.90;;;;;;5032867;28;20618;-84
2020/12/18 04:57:46;;;;;;;0.50;0.50;;;6.30;99.90;;;;;;5033078;28;20279;-85
2020/12/18 05:00:13;;;;;;;0.50;0.50;;;;;;;;;;5032902;28;20212;-84
2020/12/18 05:02:41;;;;;;;0.50;0.50;;;6.30;99.90;;;;;;5033355;28;20212;-85
2020/12/18 05:05:10;;;;;;;0.52;0.52;;;;;;;;;;5033118;28;20649;-84
2020/12/18 05:07:36;;;;;;;0.50;0.50;;;;;;;;;;5032793;28;20347;-85
2020/12/18 05:10:03;;;;;;;0.50;0.50;;;;;;;;;;5032998;28;20209;-85
2020/12/18 05:12:29;;;;;;;0.50;0.50;;;;;;;;;;5033172;28;20204;-85
2020/12/18 05:14:59;;;;;;;0.60;0.60;;;;;;;;;;5032412;28;20205;-85
2020/12/18 05:17:25;;;;;;;0.50;0.50;;;;;;;;;;5032769;28;20343;-84
2020/12/18 05:19:52;;;;;;;0.50;0.50;;;6.10;99.90;;;;;;5032591;28;20228;-85
2020/12/18 05:22:24;;;;;;;0.55;0.55;;;6.10;99.90;;;;;;5032375;28;20253;-85
2020/12/18 05:24:53;;;;;;;0.50;0.50;;;6.00;99.90;;;;;;5032844;28;20224;-86
2020/12/18 05:27:21;;;;;;;0.50;0.50;;;;;;;;;;5032701;28;20529;-85
2020/12/18 05:29:47;;;;;;;0.50;0.50;;;;;;;;;;5032272;28;20200;-85
2020/12/18 05:32:14;;;;;;;0.50;0.50;;;6.00;99.90;;;;;;5032522;28;20223;-86
2020/12/18 05:34:40;;;;;;;0.50;0.50;;;5.90;99.90;;;;;;5032313;28;20198;-85
2020/12/18 05:37:11;;;;;;;0.50;0.50;;;5.90;99.90;;;;;;5032550;28;20406;-86
2020/12/18 05:39:37;;;;;;;0.50;0.50;;;5.90;99.90;;;;;;5032382;28;20687;-86
2020/12/18 05:42:07;;;;;;;0.52;0.52;;;5.90;99.90;;;;;;5032551;28;20214;-86
2020/12/18 05:44:34;;;;;;;0.50;0.50;;;5.80;99.90;;;;;;5032197;28;20225;-86
2020/12/18 05:47:06;;;;;;;0.52;0.52;;;5.80;99.90;;;;;;5032108;28;20258;-86
2020/12/18 05:49:33;;;;;;;0.50;0.50;;;5.90;99.90;;;;;;5032238;28;20243;-86
2020/12/18 05:52:00;;;;;;;0.50;0.50;;;5.90;99.90;;;;;;5032114;28;20262;-85
2020/12/18 05:54:37;;;;;;;0.50;0.50;;;5.90;99.90;;;;;;5032419;28;20212;-86
2020/12/18 05:57:11;;;;;;;0.50;0.50;;;5.90;99.90;;;;;;5031843;28;20710;-86
2020/12/18 05:59:42;;;;;;;0.50;0.50;;;5.90;99.90;;;;;;5032089;28;20200;-86
2020/12/18 06:02:12;;;;;;;0.50;0.50;;;5.90;99.90;;;;;;5032019;28;20641;-85
2020/12/18 06:04:38;;;;;;;0.50;0.50;;;5.90;99.90;;;;;;5032904;28;20248;-86
2020/12/18 06:07:06;;;;;;;0.50;0.50;;;5.90;99.90;;;;;;5032103;28;20507;-86
2020/12/18 06:09:34;;;;;;;0.50;0.50;;;5.80;99.90;;;;;;5032036;28;20205;-86
2020/12/18 06:12:05;;;;;;;0.50;0.50;;;5.80;99.90;;;;;;5031897;28;20217;-86
2020/12/18 06:14:32;;;;;;;0.50;0.50;;;5.70;99.90;;;;;;5031754;28;20208;-86
2020/12/18 06:17:05;;;;;;;0.50;0.50;;;5.70;99.90;;;;;;5031879;28;20201;-86
2020/12/18 06:19:37;;;;;;;0.50;0.50;;;5.70;99.90;;;;;;5030465;28;20271;-87
2020/12/18 06:22:03;;;;;;;0.50;0.50;;;5.60;99.90;;;;;;5016950;28;20209;-87
2020/12/18 06:24:29;;;;;;;0.50;0.50;;;5.50;99.90;;;;;;5013898;28;20320;-86
2020/12/18 06:26:57;;;;;;;0.50;0.50;;;5.50;99.90;;;;;;5030910;28;20208;-86
2020/12/18 06:29:27;;;;;;;0.55;0.55;;;6.40;99.90;;;;;;5031714;28;20205;-86
2020/12/18 06:31:53;;;;;;;0.60;0.60;;;;;;;;;;5042575;28;20642;-86
2020/12/18 06:34:27;;;;;;;0.50;0.50;;;5.20;99.90;;;;;;5031597;28;20201;-85
2020/12/18 06:36:57;;;;;;;0.50;0.50;;;5.20;99.90;;;;;;5030922;28;20205;-88
2020/12/18 06:39:33;;;;;;;0.57;0.57;;;5.00;99.90;;;;;;5031617;28;20216;-87
2020/12/18 06:42:15;;;;;;;0.50;0.50;;;4.90;99.90;;;;;;5031412;28;20308;-87
2020/12/18 06:44:43;;;;;;;0.50;0.50;;;4.80;99.90;;;;;;5030661;28;20452;-86
2020/12/18 06:47:12;;;;;;;0.57;0.57;;;5.00;99.90;;;;;;5031118;28;20217;-86
2020/12/18 06:49:58;;;;;;;0.50;0.50;;;5.00;99.90;;;;;;5031792;28;20772;-87
2020/12/18 06:52:55;;;;;;;0.57;0.57;;;4.90;99.90;;;;;;5029249;28;20220;-88
2020/12/18 06:55:41;;;;;;;0.50;0.50;;;4.90;99.90;;;;;;4945462;29;20227;-88
2020/12/18 06:58:15;;;;;;;0.50;0.50;;;4.90;99.90;;;;;;5025990;28;20216;-86
2020/12/18 07:00:52;;;;;;;0.55;0.55;;;4.80;99.90;;;;;;5036754;28;20204;-87
2020/12/18 07:03:41;;;;;;;0.52;0.52;;;4.80;99.90;;;;;;5030473;28;20223;-86
2020/12/18 07:06:10;;;;;;;0.50;0.50;;;4.80;99.90;;;;;;5030427;28;20205;-86
2020/12/18 07:08:38;;;;;;;0.50;0.50;;;4.80;99.90;;;;;;5031611;28;20209;-86
2020/12/18 07:11:07;;;;;;;0.50;0.50;;;5.30;99.90;;;;;;5032212;28;20557;-86
2020/12/18 07:13:34;;;;;;;0.50;0.50;;;4.80;99.90;;;;;;5031519;28;20212;-86
2020/12/18 07:16:09;;;;;;;0.50;0.50;;;4.80;99.90;;;;;;5031202;28;20585;-85
2020/12/18 07:18:39;;;;;;;0.50;0.50;;;4.80;99.90;;;;;;5031414;28;20678;-85
2020/12/18 07:21:08;;;;;;;0.50;0.50;;;4.80;99.90;;;;;;5030375;28;20208;-86
2020/12/18 07:23:35;;;;;;;0.50;0.50;;;4.70;99.90;;;;;;5031411;28;20255;-87
2020/12/18 07:26:03;;;;;;;0.50;0.50;;;4.70;99.90;;;;;;5030000;28;20216;-86
2020/12/18 07:28:30;;;;;;;0.50;0.50;;;4.60;99.90;;;;;;5031283;28;20275;-86
2020/12/18 07:31:01;;;;;;;0.50;0.50;;;4.60;99.90;;;;;;5034655;28;20197;-89
2020/12/18 07:33:28;;;;;;;0.50;0.50;;;4.50;99.90;;;;;;5042770;28;20219;-89
2020/12/18 07:36:03;;;;;;;0.50;0.50;;;4.40;99.90;;;;;;5039895;28;20280;-89
2020/12/18 07:38:32;;;;;;;0.50;0.50;;;4.30;99.90;;;;;;5040242;28;20291;-89
2020/12/18 07:41:14;;;;;;;0.50;0.50;;;4.40;99.90;;;;;;5039805;28;20201;-89
2020/12/18 07:43:49;;;;;;;0.50;0.50;;;4.10;99.90;;;;;;5040960;28;20216;-89
2020/12/18 07:46:19;;;;;;;0.50;0.50;;;4.30;99.90;;;;;;5040645;28;20200;-87
2020/12/18 07:48:47;;;;;;;0.50;0.50;;;4.40;99.90;;;;;;5036417;28;20290;-86
2020/12/18 07:51:18;;;;;;;0.50;0.50;;;4.20;99.90;;;;;;5032375;28;20679;-86
2020/12/18 07:53:45;;;;;;;0.50;0.50;;;4.30;99.90;;;;;;5039161;28;20209;-87
2020/12/18 07:56:13;;;;;;;0.50;0.50;;;4.30;99.90;;;;;;5043135;28;20265;-86
2020/12/18 07:58:48;;;;;;;0.50;0.50;;;4.30;99.90;;;;;;5035661;28;20216;-87
2020/12/18 08:01:17;;;;;;;0.50;0.50;;;4.30;99.90;;;;;;5042050;28;20647;-86
2020/12/18 08:03:45;;;;;;;0.50;0.50;;;4.30;99.90;;;;;;5042789;28;20209;-86
2020/12/18 08:06:17;;;;;;;0.50;0.50;;;4.30;99.90;;;;;;5031165;28;20208;-86
2020/12/18 08:08:49;;;;;;;0.50;0.50;;;4.30;99.90;;;;;;5031059;28;20209;-87
2020/12/18 08:11:17;;;;;;;0.50;0.50;;;4.30;99.90;;;;;;5030984;28;20201;-87
2020/12/18 08:13:44;;;;;;;0.50;0.50;;;;;;;;;;5030806;28;20201;-87
2020/12/18 08:16:12;;;;;;;0.50;0.50;;;4.30;99.90;;;;;;5030915;28;20209;-86
2020/12/18 08:18:44;;;;;;;0.50;0.50;;;4.20;99.90;;;;;;5030532;28;20292;-87
2020/12/18 08:21:13;;;;;;;0.50;0.50;;;4.10;99.90;;;;;;5030996;28;20263;-86
2020/12/18 08:23:45;;;;;;;0.50;0.50;;;4.30;99.90;;;;;;5024341;28;20259;-86
2020/12/18 08:26:11;;;;;;;0.50;0.50;;;4.30;99.90;;;;;;5028942;28;20205;-86
2020/12/18 08:28:39;;;;;;;0.50;0.50;;;4.30;99.90;;;;;;5036256;28;20207;-86
2020/12/18 08:31:08;;;;;;;0.50;0.50;;;4.30;99.90;;;;;;5036160;28;20286;-86
2020/12/18 08:33:47;;;;;;;0.50;0.50;;;4.30;99.90;;;;;;5032695;28;20209;-86
2020/12/18 08:36:14;;;;;;;0.50;0.50;;;4.40;99.90;;;;;;5033339;28;20350;-86
2020/12/18 08:38:40;;;;;;;0.50;0.50;;;4.40;99.90;;;;;;5034217;28;20243;-86
2020/12/18 08:41:06;;;;;;;0.50;0.50;;;4.40;99.90;;;;;;5034247;28;20211;-87
2020/12/18 08:43:32;;;;;;;0.50;0.50;;;4.40;99.90;;;;;;5034343;28;20205;-86
2020/12/18 08:45:59;;;;;;;0.50;0.50;;;4.50;99.90;;;;;;5034139;28;20232;-86
2020/12/18 08:48:26;;;;;;;0.50;0.50;;;4.50;99.90;;;;;;5033020;28;20263;-87
2020/12/18 08:51:00;;;;;;;0.50;0.50;;;4.50;99.90;;;;;;5034093;28;20212;-86
2020/12/18 08:53:33;;;;;;;0.50;0.50;;;4.60;99.90;;;;;;5034138;28;20810;-87
2020/12/18 08:56:06;;;;;;;0.50;0.50;;;4.90;99.90;;;;;;5038968;28;20683;-86
2020/12/18 08:58:33;;;;;;;0.50;0.50;;;4.40;99.90;;;;;;5036367;28;20209;-86
2020/12/18 09:01:01;;;;;;;0.50;0.50;;;4.70;99.90;;;;;;5031357;28;20227;-86
2020/12/18 09:03:37;;;;;;;0.50;0.50;;;4.70;99.90;;;;;;5033489;28;20714;-87
2020/12/18 09:06:11;;;;;;;0.50;0.50;;;5.80;99.90;;;;;;5034027;28;20232;-86
2020/12/18 09:08:37;;;;;;;0.50;0.50;;;4.80;99.90;;;;;;5030046;28;20647;-86
2020/12/18 09:11:03;;;;;;;0.50;0.50;;;4.90;99.90;;;;;;5033507;28;20251;-86
2020/12/18 09:13:31;;;;;;;0.50;0.50;;;5.00;99.90;;;;;;5034009;28;20209;-86
2020/12/18 09:16:05;;;;;;;0.50;0.50;;;5.00;99.90;;;;;;5034011;28;20208;-86
2020/12/18 09:18:33;;;;;;;0.50;0.50;;;5.10;99.90;;;;;;5033321;28;20204;-86
2020/12/18 09:21:11;;;;;;;0.50;0.50;;;5.20;99.90;;;;;;5033631;28;20212;-86
2020/12/18 09:23:40;;;;;;;0.50;0.50;;;5.20;99.90;;;;;;5041910;28;20200;-87
2020/12/18 09:26:06;;;;;;;0.50;0.50;;;5.30;99.90;;;;;;5035898;28;20233;-86
2020/12/18 09:28:37;;;;;;;0.50;0.50;;;5.40;99.90;;;;;;5035760;28;20300;-86
2020/12/18 09:31:06;;;;;;;0.50;0.50;;;5.50;99.90;;;;;;5046584;28;20305;-86
2020/12/18 09:33:33;;;;;;;0.50;0.50;;;5.60;99.90;;;;;;5033393;28;20201;-86
2020/12/18 09:36:02;;;;;;;0.50;0.50;;;5.60;99.90;;;;;;5033640;28;20204;-87
2020/12/18 09:38:32;;;;;;;0.50;0.50;;;5.70;99.90;;;;;;5033286;28;20251;-86
2020/12/18 09:41:01;;;;;;;0.50;0.50;;;5.70;99.90;;;;;;5034242;28;20259;-87
2020/12/18 09:43:28;;;;;;;0.50;0.50;;;5.80;99.90;;;;;;5039309;28;20343;-86
2020/12/18 09:45:55;;;;;;;0.50;0.50;;;5.80;99.90;;;;;;5032886;28;20240;-86
2020/12/18 09:48:22;;;;;;;0.50;0.50;;;5.90;99.90;;;;;;5032656;28;20215;-86
2020/12/18 09:50:49;;;;;;;0.50;0.50;;;5.90;99.90;;;;;;5040639;28;20746;-86
2020/12/18 09:53:15;;;;;;;0.50;0.50;;;6.50;99.90;;;;;;5042219;28;20263;-89
2020/12/18 09:55:43;;;;;;;0.50;0.50;;;6.00;99.90;;;;;;5041721;28;20197;-87
2020/12/18 09:58:09;;;;;;;0.50;0.50;;;6.10;99.90;;;;;;5043564;28;20207;-87
2020/12/18 10:00:37;;;;;;;0.50;0.50;;;6.10;99.90;;;;;;5033540;28;20201;-87
2020/12/18 10:03:06;;;;;;;0.50;0.50;;;6.20;99.90;;;;;;5032280;28;20671;-87
2020/12/18 10:05:32;;;;;;;0.50;0.50;;;6.20;99.90;;;;;;5032894;28;20346;-87
2020/12/18 10:08:00;;;;;;;0.50;0.50;;;6.30;99.90;;;;;;5030122;28;20220;-89
2020/12/18 10:10:30;;;;;;;0.52;0.52;;;6.40;99.90;;;;;;5050073;28;20315;-88
2020/12/18 10:13:00;;;;;;;0.50;0.50;;;6.40;99.90;;;;;;5053032;28;20659;-89
2020/12/18 10:15:30;;;;;;;0.50;0.50;;;6.00;99.90;;;;;;5053400;28;20236;-89
2020/12/18 10:17:59;;;;;;;0.50;0.50;;;6.60;99.90;;;;;;5052353;28;20239;-90
2020/12/18 10:20:27;;;;;;;0.50;0.50;;;6.60;99.90;;;;;;5052208;28;20675;-88
2020/12/18 10:22:53;;;;;;;0.57;0.57;;;6.60;99.90;;;;;;5052983;28;20216;-86
2020/12/18 10:25:19;;;;;;;0.52;0.52;;;6.70;99.90;;;;;;5052764;28;20262;-87
2020/12/18 10:27:49;;;;;;;0.50;0.50;;;6.80;99.90;;;;;;5053029;28;20538;-87
2020/12/18 10:30:16;;;;;;;0.50;0.50;;;6.90;99.90;;;;;;5052946;28;20208;-87
2020/12/18 10:32:45;;;;;;;0.50;0.50;;;6.90;99.90;;;;;;5052895;28;20212;-87
2020/12/18 10:35:11;;;;;;;0.50;0.50;;;7.00;99.90;;;;;;5052772;28;20200;-86
2020/12/18 10:37:38;;;;;;;0.50;0.50;;;7.00;99.90;;;;;;5052555;28;20212;-87
2020/12/18 10:40:05;;;;;;;0.50;0.50;;;7.00;99.90;;;;;;5053020;28;20211;-87
2020/12/18 10:42:32;;;;;;;0.50;0.50;;;7.00;99.90;;;;;;5052615;28;20208;-86
2020/12/18 10:45:00;;;;;;;0.50;0.50;;;7.00;99.90;;;;;;5052633;28;20232;-86
2020/12/18 10:47:28;;;;;;;0.60;0.60;;;7.00;99.90;;;;;;5052397;28;20204;-85
2020/12/18 10:49:54;;;;;;;0.50;0.50;;;7.00;99.90;;;;;;5051278;28;20242;-85
2020/12/18 10:52:21;;;;;;;0.50;0.50;;;7.00;99.90;;;;;;5050649;28;20215;-85
2020/12/18 10:54:49;;;;;;;0.50;0.50;;;7.10;99.90;;;;;;5052505;28;20211;-84
2020/12/18 10:57:15;;;;;;;0.52;0.52;;;7.10;99.90;;;;;;5052334;28;20219;-88
2020/12/18 10:59:41;;;;;;;0.50;0.50;;;7.10;99.90;;;;;;5052687;28;20204;-87
2020/12/18 11:02:07;;;;;;;0.50;0.50;;;7.10;99.90;;;;;;5052150;28;20212;-87
2020/12/18 11:04:34;;;;;;;0.50;0.50;;;7.30;99.90;;;;;;5052581;28;20231;-87
2020/12/18 11:07:00;;;;;;;0.50;0.50;;;7.40;99.90;;;;;;5052296;28;20672;-86
2020/12/18 11:09:27;;;;;;;0.50;0.50;;;7.50;99.90;;;;;;5050571;28;20219;-86
2020/12/18 11:11:57;;;;;;;0.50;0.50;;;7.60;99.90;;;;;;5052159;28;20204;-86
2020/12/18 11:14:24;;;;;;;0.55;0.55;;;7.70;99.90;;;;;;5052262;28;20200;-86
2020/12/18 11:16:54;;;;;;;0.50;0.50;;;7.80;99.90;;;;;;5052155;28;20257;-87
2020/12/18 11:19:20;;;;;;;0.50;0.50;;;8.00;99.90;;;;;;5052078;28;20467;-86
2020/12/18 11:21:47;;;;;;;0.50;0.50;;;8.20;99.90;;;;;;5051891;28;20608;-86
2020/12/18 11:24:13;;;;;;;0.50;0.50;;;8.50;99.90;;;;;;5051924;28;20678;-87
2020/12/18 11:26:40;;;;;;;0.60;0.60;;;8.90;99.90;;;;;;5051507;28;20200;-87
2020/12/18 11:29:06;;;;;;;0.50;0.50;;;9.20;99.90;;;;;;5051838;28;20721;-87
2020/12/18 11:31:37;;;;;;;0.50;0.50;;;9.40;99.90;;;;;;5052250;28;20274;-87
2020/12/18 11:34:03;;;;;;;0.50;0.50;;;9.40;99.90;;;;;;5052283;28;20548;-87
2020/12/18 11:36:30;;;;;;;0.50;0.50;;;9.40;99.90;;;;;;5047474;28;20197;-87
2020/12/18 11:38:57;;;;;;;0.50;0.50;;;9.40;99.90;;;;;;5031795;28;20200;-86
2020/12/18 11:41:23;;;;;;;0.50;0.50;;;9.50;99.90;;;;;;5035568;28;20204;-88
2020/12/18 11:43:49;;;;;;;0.50;0.50;;;9.80;99.90;;;;;;5048163;28;20200;-87
2020/12/18 11:46:15;;;;;;;0.50;0.50;;;10.00;99.90;;;;;;5051144;28;20540;-87
2020/12/18 11:48:44;;;;;;;0.60;0.60;;;10.30;99.90;;;;;;5045005;28;20346;-87
2020/12/18 11:51:10;;;;;;;0.50;0.50;;;10.40;99.90;;;;;;5051525;28;20204;-87
2020/12/18 11:53:39;;;;;;;0.50;0.50;;;10.40;99.90;;;;;;5051834;28;20212;-87
2020/12/18 11:56:06;;;;;;;0.50;0.50;;;10.30;99.90;;;;;;5051751;28;20230;-87
2020/12/18 11:58:32;;;;;;;0.50;0.50;;;10.30;99.90;;;;;;5051409;28;20204;-87
2020/12/18 12:00:58;;;;;;;0.55;0.55;;;10.30;99.90;;;;;;5041223;28;20208;-87
2020/12/18 12:03:25;;;;;;;0.60;0.60;;;10.40;99.90;;;;;;5040479;28;20216;-86
2020/12/18 12:05:57;;;;;;;0.60;0.60;;;10.00;99.90;;;;;;5044428;28;20220;-87
2020/12/18 12:08:23;;;;;;;0.52;0.52;;;9.70;99.90;;;;;;5045442;28;20208;-86
2020/12/18 12:10:51;;;;;;;0.60;0.60;;;9.40;99.90;;;;;;5053409;28;20204;-87
2020/12/18 12:13:18;;;;;;;0.60;0.60;;;9.20;99.90;;;;;;5054774;28;20242;-87
2020/12/18 12:15:44;;;;;;;0.50;0.50;;;8.90;99.90;;;;;;5054391;28;20204;-87
2020/12/18 12:18:10;;;;;;;0.50;0.50;;;8.80;99.90;;;;;;5054590;28;20258;-86
2020/12/18 12:20:36;;;;;;;0.60;0.60;;;8.60;99.90;;;;;;5054222;28;20464;-86
2020/12/18 12:23:02;;;;;;;0.50;0.50;;;8.60;99.90;;;;;;5053464;28;20220;-86
2020/12/18 12:25:28;;;;;;;0.55;0.55;;;8.50;99.90;;;;;;5053625;28;20228;-87
2020/12/18 12:27:58;;;;;;;0.52;0.52;;;8.60;99.90;;;;;;5053626;28;20886;-86
2020/12/18 12:30:25;;;;;;;0.60;0.60;;;8.90;99.90;;;;;;5054274;28;20204;-86
2020/12/18 12:32:54;;;;;;;0.52;0.52;;;9.10;99.90;;;;;;5053658;28;20716;-87
2020/12/18 12:35:21;;;;;;;0.60;0.60;;;9.10;99.90;;;;;;5051889;28;20228;-88
2020/12/18 12:37:47;;;;;;;0.50;0.50;;;9.20;99.90;;;;;;5050080;28;20550;-87
2020/12/18 12:40:13;;;;;;;0.60;0.60;;;9.40;99.90;;;;;;5052835;28;20613;-86
2020/12/18 12:42:39;;;;;;;0.55;0.55;;;9.70;99.90;;;;;;5035373;28;20205;-86
2020/12/18 12:45:06;;;;;;;0.60;0.60;;;9.40;99.90;;;;;;5035105;28;20283;-87
2020/12/18 12:47:33;;;;;;;0.52;0.52;;;9.70;99.90;;;;;;5034781;28;20208;-86
2020/12/18 12:49:59;;;;;;;0.50;0.50;;;9.80;99.90;;;;;;5034839;28;20247;-88
2020/12/18 12:52:25;;;;;;;0.50;0.50;;;9.90;99.90;;;;;;5040521;28;20209;-86
2020/12/18 12:54:51;;;;;;;0.52;0.52;;;9.90;99.90;;;;;;5043570;28;20245;-86
2020/12/18 12:57:17;;;;;;;0.50;0.50;;;9.80;99.90;;;;;;5044634;28;20278;-87
2020/12/18 12:59:46;;;;;;;0.57;0.57;;;9.90;99.90;;;;;;5042809;28;20201;-86
2020/12/18 13:02:13;;;;;;;0.60;0.60;;;9.90;99.90;;;;;;5051259;28;20204;-87
2020/12/18 13:04:39;;;;;;;0.60;0.60;;;9.80;99.90;;;;;;5054692;28;20222;-87
2020/12/18 13:07:06;;;;;;;0.60;0.60;;;10.90;99.90;;;;;;5056424;28;20269;-86
2020/12/18 13:09:32;;;;;;;0.50;0.50;;;9.00;99.90;;;;;;5057354;28;20219;-87
2020/12/18 13:11:58;;;;;;;0.50;0.50;;;9.70;99.90;;;;;;5055746;28;20231;-86
2020/12/18 13:14:24;;;;;;;0.50;0.50;;;9.70;99.90;;;;;;5054694;28;20204;-86
2020/12/18 13:16:51;;;;;;;0.60;0.60;;;;;;;;;;5055125;28;20231;-87
2020/12/18 13:19:17;;;;;;;0.50;0.50;;;9.60;99.90;;;;;;5053778;28;20887;-86